Time;durP1;ratioP1;P1;durP2;ratioP2;P2;SDS_P1;SDS_P2;PMS_P1;PMS_P2;Temp;Humidity;BMP_temperature;BMP_pressure;BME280_temperature;BME280_humidity;BME280_pressure;Samples;Min_cycle;Max_cycle;Signal;HPM_P1;HPM_P2
2022/01/24 00:00:44;;;;;;;9.45;3.53;;;5.60;79.70;;;;;;4155483;28;20441;-34
2022/01/24 00:02:45;;;;;;;10.82;3.55;;;5.60;79.70;;;;;;4152455;28;20470;-33
2022/01/24 00:04:48;;;;;;;10.10;3.80;;;5.60;79.80;;;;;;4155139;28;20038;-33
2022/01/24 00:06:49;;;;;;;7.60;3.40;;;5.60;79.80;;;;;;4148229;28;20653;-34
2022/01/24 00:08:49;;;;;;;7.05;3.38;;;5.60;79.80;;;;;;4141221;28;20117;-33
2022/01/24 00:10:52;;;;;;;5.72;3.22;;;5.60;79.80;;;;;;4150695;28;20401;-34
2022/01/24 00:15:13;;;;;;;4.97;3.15;;;5.60;79.90;;;;;;4148346;28;20018;-34
2022/01/24 00:17:30;;;;;;;11.18;3.60;;;5.60;79.80;;;;;;4153813;28;20029;-34
2022/01/24 00:28:42;;;;;;;12.03;3.90;;;5.70;79.60;;;;;;4150280;28;20095;-33
2022/01/24 00:30:42;;;;;;;8.75;3.42;;;5.70;79.60;;;;;;4149780;28;20021;-33
2022/01/24 00:32:43;;;;;;;9.65;3.20;;;5.70;79.50;;;;;;4157131;28;20026;-33
2022/01/24 00:34:44;;;;;;;4.82;3.00;;;5.70;79.40;;;;;;4158085;28;20022;-34
2022/01/24 00:36:47;;;;;;;9.98;3.25;;;5.70;79.40;;;;;;4147409;28;20034;-34
2022/01/24 00:38:48;;;;;;;8.68;3.08;;;5.70;79.30;;;;;;4138538;28;20041;-34
2022/01/24 00:40:50;;;;;;;7.63;3.00;;;5.70;79.30;;;;;;4149794;28;20033;-34
2022/01/24 00:42:54;;;;;;;7.30;3.60;;;5.70;79.20;;;;;;4152617;28;20419;-34
2022/01/24 00:49:49;;;;;;;9.88;3.53;;;5.70;79.10;;;;;;4155792;28;20828;-34
2022/01/24 00:56:46;;;;;;;8.93;3.40;;;5.70;79.00;;;;;;4125099;28;20055;-33
2022/01/24 00:58:46;;;;;;;13.82;3.75;;;5.80;79.00;;;;;;4144395;28;20041;-33
2022/01/24 01:00:47;;;;;;;10.10;3.72;;;5.80;79.00;;;;;;4147594;28;20109;-33
2022/01/24 01:02:47;;;;;;;8.88;3.50;;;5.80;79.00;;;;;;4151460;28;20021;-33
2022/01/24 01:06:50;;;;;;;11.73;4.05;;;5.70;78.90;;;;;;4158545;28;20021;-33
2022/01/24 01:18:12;;;;;;;10.30;3.90;;;5.70;78.80;;;;;;4153123;28;20033;-33
2022/01/24 01:20:16;;;;;;;9.10;4.35;;;5.70;78.80;;;;;;4147716;28;20022;-34
2022/01/24 01:22:17;;;;;;;12.10;5.38;;;5.70;78.90;;;;;;4154173;28;20404;-33
2022/01/24 01:24:18;;;;;;;9.25;5.10;;;5.70;78.90;;;;;;4153174;28;20081;-34
2022/01/24 01:28:25;;;;;;;14.70;5.63;;;5.70;79.00;;;;;;4157644;28;20029;-33
2022/01/24 01:30:36;;;;;;;13.55;4.95;;;5.70;79.00;;;;;;4151542;28;20026;-34
2022/01/24 01:37:40;;;;;;;9.55;4.97;;;5.70;79.00;;;;;;4149231;28;20630;-33
2022/01/24 01:53:59;;;;;;;11.75;5.57;;;5.70;79.20;;;;;;4156526;28;20052;-33
2022/01/24 01:56:00;;;;;;;21.20;5.25;;;5.60;79.20;;;;;;4144455;28;20029;-33
2022/01/24 01:58:00;;;;;;;12.63;5.35;;;5.70;79.30;;;;;;4146203;28;20710;-36
2022/01/24 02:00:02;;;;;;;18.77;5.78;;;5.60;79.30;;;;;;4152334;28;20037;-34
2022/01/24 02:02:02;;;;;;;11.52;5.57;;;5.70;79.40;;;;;;4146794;28;20034;-33
2022/01/24 02:04:05;;;;;;;11.07;4.72;;;5.60;79.30;;;;;;4147476;28;20030;-34
2022/01/24 02:06:05;;;;;;;14.75;5.75;;;5.70;79.40;;;;;;4144798;28;20410;-34
2022/01/24 02:08:06;;;;;;;14.65;5.93;;;5.60;79.40;;;;;;4162823;22;20084;-33
2022/01/24 02:10:07;;;;;;;11.27;5.72;;;5.60;79.50;;;;;;4144534;28;20405;-32
2022/01/24 02:12:08;;;;;;;16.27;5.90;;;5.60;79.50;;;;;;4158537;28;20536;-33
2022/01/24 02:14:15;;;;;;;11.95;5.03;;;5.60;79.50;;;;;;4146505;28;20033;-33
2022/01/24 02:16:27;;;;;;;14.27;5.15;;;5.60;79.50;;;;;;4151885;28;20026;-33
2022/01/24 02:18:37;;;;;;;13.63;5.72;;;5.60;79.60;;;;;;4153551;28;20387;-33
2022/01/24 02:25:26;;;;;;;15.82;5.38;;;5.60;79.60;;;;;;4151266;28;20030;-32
2022/01/24 02:27:39;;;;;;;11.55;5.57;;;5.60;79.70;;;;;;4149276;28;20025;-32
2022/01/24 02:31:59;;;;;;;14.00;6.03;;;5.60;79.80;;;;;;4146644;28;20029;-34
2022/01/24 02:33:59;;;;;;;12.85;5.20;;;5.60;79.80;;;;;;4152642;28;20029;-33
2022/01/24 02:36:00;;;;;;;11.85;5.78;;;5.60;79.90;;;;;;4150311;28;20036;-33
2022/01/24 02:38:04;;;;;;;11.55;5.20;;;5.60;80.00;;;;;;4149674;28;20037;-33
2022/01/24 02:40:12;;;;;;;15.57;5.78;;;5.60;80.10;;;;;;4133495;28;20014;-34
2022/01/24 02:49:13;;;;;;;13.85;5.70;;;5.60;80.10;;;;;;4147940;28;20092;-35
2022/01/24 02:53:15;;;;;;;12.95;5.30;;;5.60;80.20;;;;;;4151175;28;20061;-34
2022/01/24 02:55:15;;;;;;;13.85;5.90;;;5.60;80.20;;;;;;4150514;28;20068;-33
2022/01/24 02:57:16;;;;;;;16.77;7.28;;;5.60;80.20;;;;;;4143860;28;20103;-33
2022/01/24 02:59:17;;;;;;;15.30;5.82;;;5.60;80.10;;;;;;4146560;28;20037;-33
2022/01/24 03:01:17;;;;;;;16.13;5.63;;;5.60;80.10;;;;;;4151611;28;20029;-33
2022/01/24 03:03:18;;;;;;;12.57;5.57;;;5.50;80.00;;;;;;4144866;28;20021;-34
2022/01/24 03:05:18;;;;;;;11.07;5.75;;;5.50;80.00;;;;;;4141744;28;20549;-37
2022/01/24 03:07:19;;;;;;;12.52;5.53;;;5.50;80.00;;;;;;4151015;28;20025;-33
2022/01/24 03:09:22;;;;;;;10.40;4.93;;;5.50;80.10;;;;;;4152148;28;20277;-33
2022/01/24 03:11:27;;;;;;;16.02;5.53;;;5.50;80.00;;;;;;4155088;28;20060;-33
2022/01/24 03:15:28;;;;;;;13.18;5.63;;;5.50;80.10;;;;;;4151402;28;20030;-33
2022/01/24 03:17:29;;;;;;;14.30;5.80;;;5.60;80.20;;;;;;4149192;28;20480;-32
2022/01/24 03:19:29;;;;;;;13.50;5.53;;;5.50;80.10;;;;;;4146291;28;20108;-34
2022/01/24 03:21:30;;;;;;;17.58;5.43;;;5.60;80.10;;;;;;4153092;28;20025;-33
2022/01/24 03:23:31;;;;;;;18.10;5.60;;;5.60;80.10;;;;;;4154294;28;20550;-33
2022/01/24 03:25:32;;;;;;;10.32;5.07;;;5.60;80.10;;;;;;4146583;28;20082;-35
2022/01/24 03:27:32;;;;;;;14.27;5.95;;;5.60;80.10;;;;;;4149089;28;20109;-32
2022/01/24 03:29:33;;;;;;;18.08;5.68;;;5.60;80.10;;;;;;4145481;28;20037;-33
2022/01/24 03:31:34;;;;;;;14.55;5.50;;;5.60;80.10;;;;;;4151970;28;20021;-33
2022/01/24 03:33:35;;;;;;;16.15;5.03;;;5.60;80.00;;;;;;4146067;28;20034;-32
2022/01/24 03:35:35;;;;;;;13.23;5.57;;;5.60;80.00;;;;;;4147249;28;20440;-33
2022/01/24 03:37:36;;;;;;;18.60;5.05;;;5.60;80.70;;;;;;4148538;28;20021;-33
2022/01/24 03:39:37;;;;;;;15.63;5.63;;;5.60;80.00;;;;;;4146591;28;20033;-32
2022/01/24 03:41:39;;;;;;;14.60;5.80;;;5.60;80.10;;;;;;4131316;28;20040;-33
2022/01/24 03:43:40;;;;;;;14.40;6.30;;;5.60;80.00;;;;;;4131039;28;20053;-33
2022/01/24 03:45:47;;;;;;;19.00;6.55;;;5.60;80.00;;;;;;4151139;28;20037;-33
2022/01/24 03:48:06;;;;;;;17.15;6.10;;;5.60;80.00;;;;;;4153110;28;20099;-33
2022/01/24 03:50:09;;;;;;;15.07;6.03;;;5.60;80.10;;;;;;4151055;28;20040;-35
2022/01/24 03:52:09;;;;;;;18.20;7.00;;;5.60;80.00;;;;;;4142875;28;20156;-32
2022/01/24 03:54:10;;;;;;;23.83;6.65;;;5.60;80.00;;;;;;4125529;28;20507;-33
2022/01/24 03:56:11;;;;;;;19.45;6.40;;;5.60;80.10;;;;;;4132645;28;20081;-36
2022/01/24 03:58:12;;;;;;;19.25;5.97;;;5.60;80.10;;;;;;4148234;28;20053;-33
2022/01/24 04:00:12;;;;;;;17.45;6.07;;;5.60;80.80;;;;;;4153812;28;20029;-33
2022/01/24 04:02:13;;;;;;;12.85;5.28;;;5.60;80.10;;;;;;4148290;28;20029;-35
2022/01/24 04:04:14;;;;;;;15.35;6.05;;;5.60;80.20;;;;;;4149955;28;20046;-33
2022/01/24 04:06:14;;;;;;;12.82;5.95;;;5.60;80.20;;;;;;4148249;28;20502;-33
2022/01/24 04:08:15;;;;;;;16.95;6.00;;;5.60;80.20;;;;;;4153736;28;20064;-34
2022/01/24 04:10:18;;;;;;;17.15;6.65;;;5.60;80.20;;;;;;4147174;28;20405;-32
2022/01/24 04:12:24;;;;;;;20.55;5.78;;;5.60;80.20;;;;;;4146089;28;20048;-33
2022/01/24 04:14:53;;;;;;;18.92;5.15;;;5.60;80.20;;;;;;4147822;28;20045;-33
2022/01/24 04:17:08;;;;;;;16.75;6.03;;;5.60;80.20;;;;;;4147261;28;20037;-33
2022/01/24 04:21:28;;;;;;;20.80;5.90;;;5.60;80.30;;;;;;4146405;28;20113;-34
2022/01/24 04:23:28;;;;;;;22.83;5.05;;;5.60;80.20;;;;;;4147972;28;20014;-35
2022/01/24 04:25:29;;;;;;;11.13;4.82;;;5.60;80.10;;;;;;4147286;28;20061;-33
2022/01/24 04:27:30;;;;;;;12.38;4.90;;;5.60;80.10;;;;;;4147206;28;20048;-32
2022/01/24 04:29:30;;;;;;;22.70;4.72;;;5.60;80.10;;;;;;4149263;28;20045;-32
2022/01/24 04:31:31;;;;;;;14.02;3.78;;;5.60;80.00;;;;;;4149069;28;20104;-33
2022/01/24 04:33:32;;;;;;;21.60;4.47;;;5.60;80.00;;;;;;4146509;28;20054;-33
2022/01/24 04:35:32;;;;;;;19.90;4.45;;;5.60;80.00;;;;;;4147153;28;20436;-33
2022/01/24 04:37:33;;;;;;;17.38;4.53;;;5.60;79.90;;;;;;4149739;28;20396;-35
2022/01/24 04:39:33;;;;;;;13.80;4.03;;;5.50;79.80;;;;;;4150690;28;20026;-33
2022/01/24 04:41:38;;;;;;;14.98;3.55;;;5.60;79.80;;;;;;4138558;28;20030;-33
2022/01/24 04:54:45;;;;;;;13.82;3.30;;;5.60;79.30;;;;;;4129140;28;20026;-33
2022/01/24 04:56:45;;;;;;;12.20;3.55;;;5.60;79.20;;;;;;4127252;28;20033;-35
2022/01/24 04:58:46;;;;;;;15.25;3.47;;;5.60;79.10;;;;;;4151645;28;20397;-33
2022/01/24 05:00:46;;;;;;;16.90;3.22;;;5.60;79.10;;;;;;4158360;28;20032;-33
2022/01/24 05:02:47;;;;;;;15.10;3.70;;;5.60;79.10;;;;;;4158430;28;20635;-33
2022/01/24 05:04:48;;;;;;;6.43;3.63;;;5.60;79.10;;;;;;4136124;28;20038;-33
2022/01/24 05:06:48;;;;;;;14.60;4.00;;;5.60;79.00;;;;;;4152998;28;20025;-33
2022/01/24 05:08:49;;;;;;;15.20;3.40;;;5.60;78.90;;;;;;4155196;28;20153;-32
2022/01/24 05:11:11;;;;;;;11.85;3.08;;;5.70;79.00;;;;;;4148596;28;20038;-35
2022/01/24 05:24:49;;;;;;;18.48;4.45;;;5.70;78.60;;;;;;4145661;28;20504;-33
2022/01/24 05:26:50;;;;;;;13.93;4.22;;;5.70;79.30;;;;;;4143282;28;20021;-34
2022/01/24 05:28:50;;;;;;;15.05;3.83;;;5.60;78.60;;;;;;4158841;28;20029;-35
2022/01/24 05:30:51;;;;;;;18.35;4.20;;;5.60;78.70;;;;;;4139064;28;20058;-36
2022/01/24 05:32:51;;;;;;;17.27;3.80;;;5.60;78.60;;;;;;4146193;28;20026;-33
2022/01/24 05:34:52;;;;;;;11.32;3.90;;;5.70;78.70;;;;;;4142500;28;20030;-33
2022/01/24 05:36:53;;;;;;;13.18;3.88;;;5.60;78.70;;;;;;4145532;28;20029;-33
2022/01/24 05:38:53;;;;;;;19.10;3.78;;;5.70;78.70;;;;;;4148744;28;20645;-33
2022/01/24 05:40:54;;;;;;;14.30;4.30;;;5.70;78.70;;;;;;4148212;28;20385;-34
2022/01/24 05:42:55;;;;;;;10.68;3.58;;;5.70;78.70;;;;;;4155110;28;20113;-33
2022/01/24 05:44:58;;;;;;;18.60;4.55;;;5.70;78.70;;;;;;4150465;28;20054;-35
2022/01/24 05:46:58;;;;;;;15.48;4.30;;;5.60;78.80;;;;;;4149972;28;20482;-33
2022/01/24 05:48:59;;;;;;;20.58;4.35;;;5.70;79.50;;;;;;4151691;28;20063;-34
2022/01/24 05:50:59;;;;;;;8.43;3.97;;;5.60;78.70;;;;;;4152657;28;20508;-33
2022/01/24 05:53:00;;;;;;;11.00;3.85;;;5.70;78.80;;;;;;4136448;28;20045;-34
2022/01/24 05:55:01;;;;;;;13.98;4.22;;;5.70;78.80;;;;;;4151444;28;20044;-33
2022/01/24 05:57:02;;;;;;;27.20;4.53;;;5.60;78.80;;;;;;4136320;28;20030;-34
2022/01/24 05:59:02;;;;;;;15.00;3.80;;;5.60;78.80;;;;;;4153369;28;20025;-35
2022/01/24 06:01:03;;;;;;;11.65;3.70;;;5.60;78.90;;;;;;4150866;28;20444;-34
2022/01/24 06:03:03;;;;;;;16.15;4.10;;;5.60;78.90;;;;;;4145936;28;20022;-33
2022/01/24 06:05:05;;;;;;;15.35;4.82;;;5.70;79.00;;;;;;4149358;28;20025;-33
2022/01/24 06:07:05;;;;;;;12.68;5.03;;;5.60;79.00;;;;;;4157590;28;20505;-33
2022/01/24 06:09:06;;;;;;;17.83;4.97;;;5.70;79.00;;;;;;4166261;28;20029;-33
2022/01/24 06:11:06;;;;;;;12.38;4.82;;;5.70;79.00;;;;;;4149713;28;20497;-35
2022/01/24 06:13:07;;;;;;;17.40;5.10;;;5.70;79.00;;;;;;4152456;28;20025;-35
2022/01/24 06:15:08;;;;;;;13.80;4.85;;;5.70;79.10;;;;;;4154459;28;20437;-33
2022/01/24 06:17:10;;;;;;;18.90;5.10;;;5.70;79.20;;;;;;4153223;28;20073;-33
2022/01/24 06:19:11;;;;;;;11.55;4.95;;;5.70;79.10;;;;;;4159643;28;20033;-34
2022/01/24 06:21:11;;;;;;;13.35;5.53;;;5.70;79.20;;;;;;4149502;28;20394;-34
2022/01/24 06:23:13;;;;;;;12.10;6.32;;;5.70;79.20;;;;;;4157176;28;20322;-34
2022/01/24 06:25:20;;;;;;;22.55;5.55;;;5.70;79.30;;;;;;4161244;28;20153;-34
2022/01/24 06:27:21;;;;;;;18.88;6.00;;;5.70;79.30;;;;;;4144046;28;20032;-33
2022/01/24 06:29:21;;;;;;;19.13;6.03;;;5.70;79.40;;;;;;4157559;28;20040;-34
2022/01/24 06:31:22;;;;;;;17.60;6.28;;;5.70;79.40;;;;;;4161940;28;20053;-34
2022/01/24 06:33:22;;;;;;;19.27;6.80;;;5.70;79.40;;;;;;4150506;28;20121;-34
2022/01/24 06:35:23;;;;;;;12.57;5.78;;;5.70;79.50;;;;;;4152581;28;20029;-33
2022/01/24 06:37:24;;;;;;;18.00;6.20;;;5.70;79.50;;;;;;4149881;28;20029;-33
2022/01/24 06:39:25;;;;;;;18.70;6.65;;;5.70;79.50;;;;;;4155727;28;20037;-34
2022/01/24 06:41:30;;;;;;;17.52;6.15;;;5.70;79.60;;;;;;4150729;28;20021;-33
2022/01/24 06:43:31;;;;;;;11.77;6.18;;;5.70;79.60;;;;;;4159066;28;20512;-34
2022/01/24 06:45:31;;;;;;;17.08;6.60;;;5.60;79.60;;;;;;4152970;28;20026;-34
2022/01/24 06:47:32;;;;;;;15.38;6.72;;;5.60;79.70;;;;;;4150590;28;20029;-34
2022/01/24 06:49:33;;;;;;;17.95;6.50;;;5.60;80.50;;;;;;4154492;28;20506;-33
2022/01/24 06:51:34;;;;;;;12.68;5.82;;;5.60;79.80;;;;;;4159514;28;20033;-33
2022/01/24 06:53:35;;;;;;;13.35;6.47;;;5.60;79.90;;;;;;4158996;28;20100;-33
2022/01/24 06:55:35;;;;;;;12.82;6.43;;;5.60;80.00;;;;;;4158387;28;20485;-35
2022/01/24 06:57:36;;;;;;;15.07;6.50;;;5.60;80.00;;;;;;4152666;28;20037;-32
2022/01/24 06:59:39;;;;;;;20.02;6.82;;;5.60;80.00;;;;;;4160253;28;20038;-33
2022/01/24 07:01:40;;;;;;;13.68;6.88;;;5.60;80.00;;;;;;4138540;28;20018;-33
2022/01/24 07:03:41;;;;;;;19.58;7.43;;;5.60;80.10;;;;;;4156741;28;20546;-33
2022/01/24 07:05:41;;;;;;;24.17;7.28;;;5.60;80.80;;;;;;4161604;28;20024;-33
2022/01/24 07:07:42;;;;;;;16.10;6.97;;;5.60;80.10;;;;;;4160043;28;20404;-33
2022/01/24 07:09:44;;;;;;;13.52;6.80;;;5.60;80.10;;;;;;4151101;28;20329;-33
2022/01/24 07:11:44;;;;;;;16.17;7.20;;;5.60;80.00;;;;;;4154013;28;20377;-32
2022/01/24 07:13:45;;;;;;;18.77;7.28;;;5.60;80.10;;;;;;4159110;28;20104;-35
2022/01/24 07:15:50;;;;;;;16.88;7.63;;;5.60;80.10;;;;;;4141891;28;20033;-32
2022/01/24 07:18:16;;;;;;;23.35;7.70;;;5.60;80.10;;;;;;4153908;28;20030;-34
2022/01/24 07:20:12;;;;;;;16.90;7.05;;;5.60;80.10;;;;;;4145465;28;20485;-32
2022/01/24 07:22:12;;;;;;;21.27;7.53;;;5.60;80.20;;;;;;4149313;28;20029;-33
2022/01/24 07:24:13;;;;;;;22.65;7.85;;;5.60;80.20;;;;;;4144051;28;20448;-32
2022/01/24 07:26:14;;;;;;;16.10;6.90;;;5.60;80.20;;;;;;4157165;28;20022;-33
2022/01/24 07:28:15;;;;;;;21.27;8.75;;;5.60;80.30;;;;;;4145268;28;20501;-33
2022/01/24 07:30:15;;;;;;;24.90;8.32;;;5.60;80.30;;;;;;4154698;28;20489;-33
2022/01/24 07:32:16;;;;;;;20.30;9.05;;;5.60;80.30;;;;;;4158112;28;20559;-32
2022/01/24 07:34:16;;;;;;;20.10;9.07;;;5.50;80.30;;;;;;4151896;28;20084;-33
2022/01/24 07:36:17;;;;;;;26.00;8.75;;;5.50;80.30;;;;;;4158096;28;20390;-32
2022/01/24 07:38:18;;;;;;;19.23;8.90;;;5.50;80.40;;;;;;4145026;28;20179;-32
2022/01/24 07:40:20;;;;;;;18.73;8.35;;;5.50;80.60;;;;;;4155935;28;20695;-33
2022/01/24 07:42:51;;;;;;;18.10;8.65;;;5.50;80.50;;;;;;4150950;28;20033;-32
2022/01/24 07:44:50;;;;;;;18.52;7.93;;;5.50;80.50;;;;;;4143520;28;20076;-32
2022/01/24 07:46:50;;;;;;;22.77;9.95;;;5.50;80.60;;;;;;4144562;28;20477;-33
2022/01/24 07:48:51;;;;;;;24.98;9.00;;;5.50;80.50;;;;;;4145834;28;20033;-32
2022/01/24 07:50:52;;;;;;;21.70;9.30;;;5.50;80.60;;;;;;4152055;28;20549;-32
2022/01/24 07:52:55;;;;;;;31.17;9.18;;;5.40;80.50;;;;;;4150630;28;20064;-33
2022/01/24 07:54:55;;;;;;;23.30;8.32;;;5.40;80.50;;;;;;4152732;28;20354;-33
2022/01/24 07:56:56;;;;;;;24.55;8.85;;;5.40;81.20;;;;;;4155450;28;20022;-33
2022/01/24 07:58:58;;;;;;;23.20;8.73;;;5.40;80.60;;;;;;4149880;28;20390;-32
2022/01/24 08:00:58;;;;;;;25.17;9.43;;;5.40;80.60;;;;;;4157957;28;20026;-32
2022/01/24 08:02:59;;;;;;;25.08;9.15;;;5.40;80.60;;;;;;4151627;28;20026;-32
2022/01/24 08:04:59;;;;;;;18.27;8.82;;;5.40;80.60;;;;;;4150844;28;20034;-34
2022/01/24 08:07:00;;;;;;;28.05;8.45;;;5.40;80.60;;;;;;4161089;28;20029;-32
2022/01/24 08:09:01;;;;;;;21.35;9.13;;;5.30;80.40;;;;;;4168412;22;20052;-33
2022/01/24 08:11:01;;;;;;;19.88;8.18;;;5.30;80.50;;;;;;4131712;28;20030;-33
2022/01/24 08:13:02;;;;;;;23.05;8.65;;;5.30;80.50;;;;;;4129439;28;20030;-33
2022/01/24 08:15:03;;;;;;;27.75;8.98;;;5.30;80.50;;;;;;4130459;28;20125;-33
2022/01/24 08:17:04;;;;;;;24.00;9.35;;;5.40;80.60;;;;;;4128628;28;20035;-34
2022/01/24 08:19:04;;;;;;;22.38;9.57;;;5.40;80.50;;;;;;4130290;28;20076;-33
2022/01/24 08:21:05;;;;;;;29.02;9.90;;;5.40;80.50;;;;;;4130395;28;20026;-34
2022/01/24 08:23:07;;;;;;;18.92;9.15;;;5.40;80.50;;;;;;4130328;28;20027;-33
2022/01/24 08:25:08;;;;;;;21.17;9.10;;;5.30;80.30;;;;;;4130163;28;20502;-33
2022/01/24 08:27:08;;;;;;;18.55;8.18;;;5.30;80.30;;;;;;4129223;28;20033;-34
2022/01/24 08:29:09;;;;;;;18.67;8.82;;;5.40;80.30;;;;;;4130186;28;20092;-33
2022/01/24 08:31:09;;;;;;;23.23;8.65;;;5.40;80.20;;;;;;4131521;28;20019;-33
2022/01/24 08:33:10;;;;;;;19.27;8.70;;;5.40;80.20;;;;;;4128344;28;20096;-33
2022/01/24 08:35:11;;;;;;;23.05;8.57;;;5.40;80.10;;;;;;4128254;28;20030;-33
2022/01/24 08:37:12;;;;;;;25.88;8.75;;;5.40;80.00;;;;;;4128225;28;20026;-36
2022/01/24 08:39:13;;;;;;;16.92;7.68;;;5.40;79.80;;;;;;4127338;28;20030;-33
2022/01/24 08:41:21;;;;;;;27.02;8.23;;;5.40;79.80;;;;;;4130282;28;20101;-34
2022/01/24 08:43:38;;;;;;;22.40;8.18;;;5.40;79.70;;;;;;4132628;28;20034;-33
2022/01/24 08:45:50;;;;;;;17.88;7.20;;;5.40;79.60;;;;;;4127315;28;20038;-33
2022/01/24 08:47:51;;;;;;;20.02;8.80;;;5.40;79.50;;;;;;4129243;28;20088;-33
2022/01/24 08:49:52;;;;;;;18.83;7.85;;;5.40;79.30;;;;;;4126752;28;20924;-33
2022/01/24 08:51:53;;;;;;;19.88;8.10;;;5.40;79.20;;;;;;4129708;28;20027;-33
2022/01/24 08:53:53;;;;;;;17.95;7.13;;;5.40;79.10;;;;;;4127665;28;20394;-33
2022/01/24 08:55:54;;;;;;;14.18;7.65;;;5.40;79.10;;;;;;4126038;28;20089;-33
2022/01/24 08:57:56;;;;;;;16.27;7.85;;;5.40;78.90;;;;;;4128462;28;20030;-33
2022/01/24 08:59:56;;;;;;;14.85;7.30;;;5.40;78.90;;;;;;4130260;28;20406;-33
2022/01/24 09:01:57;;;;;;;24.42;7.45;;;5.40;78.70;;;;;;4131559;28;20037;-33
2022/01/24 09:03:58;;;;;;;15.05;6.45;;;5.40;78.60;;;;;;4122481;28;20746;-34
2022/01/24 09:06:00;;;;;;;15.77;7.38;;;5.40;78.60;;;;;;4126308;28;20402;-33
2022/01/24 09:08:01;;;;;;;17.20;7.47;;;5.40;78.50;;;;;;4129502;28;20104;-33
2022/01/24 09:10:03;;;;;;;18.88;6.53;;;5.40;78.40;;;;;;4132162;28;20030;-33
2022/01/24 09:12:05;;;;;;;22.27;7.67;;;5.40;78.40;;;;;;4129524;28;20405;-33
2022/01/24 09:14:06;;;;;;;16.80;7.32;;;5.40;78.30;;;;;;4130557;28;20049;-35
2022/01/24 09:16:07;;;;;;;14.32;6.47;;;5.40;78.00;;;;;;4126349;28;20018;-33
2022/01/24 09:18:08;;;;;;;14.13;6.93;;;5.40;78.10;;;;;;4130324;28;20501;-33
2022/01/24 09:20:10;;;;;;;15.50;6.68;;;5.40;77.80;;;;;;4130073;28;20061;-34
2022/01/24 09:22:10;;;;;;;20.10;7.18;;;5.40;77.60;;;;;;4128374;28;20024;-34
2022/01/24 09:24:11;;;;;;;19.08;7.47;;;5.40;77.70;;;;;;4126409;28;20068;-33
2022/01/24 09:26:11;;;;;;;18.13;7.70;;;5.40;77.60;;;;;;4126913;28;20104;-33
2022/01/24 09:28:12;;;;;;;21.98;7.47;;;5.40;77.40;;;;;;4130904;28;20034;-33
2022/01/24 09:30:15;;;;;;;16.73;7.68;;;5.40;77.30;;;;;;4128039;28;20341;-33
2022/01/24 09:32:15;;;;;;;16.98;7.22;;;5.40;77.20;;;;;;4126570;28;20823;-33
2022/01/24 09:34:16;;;;;;;17.38;7.13;;;5.50;77.20;;;;;;4131539;28;20069;-33
2022/01/24 09:36:16;;;;;;;19.10;7.93;;;5.40;77.00;;;;;;4130728;28;20149;-34
2022/01/24 09:38:17;;;;;;;25.10;8.00;;;5.50;77.10;;;;;;4125723;28;20500;-33
2022/01/24 09:40:19;;;;;;;17.63;7.63;;;5.40;77.00;;;;;;4123602;28;20116;-33
2022/01/24 09:42:19;;;;;;;15.93;7.10;;;5.50;77.10;;;;;;4129932;28;20026;-33
2022/01/24 09:44:20;;;;;;;17.73;7.47;;;5.40;76.90;;;;;;4129728;28;20126;-33
2022/01/24 09:46:21;;;;;;;15.88;7.20;;;5.50;77.00;;;;;;4129172;28;20092;-33
2022/01/24 09:48:21;;;;;;;19.58;8.93;;;5.50;76.80;;;;;;4127977;28;20034;-33
2022/01/24 09:50:22;;;;;;;17.90;7.60;;;5.40;76.70;;;;;;4127208;28;20459;-34
2022/01/24 09:52:23;;;;;;;19.38;8.57;;;5.50;76.80;;;;;;4129803;28;20038;-33
2022/01/24 09:54:23;;;;;;;22.27;8.52;;;5.50;76.60;;;;;;4125780;28;20565;-33
2022/01/24 09:56:24;;;;;;;16.88;8.40;;;5.50;76.70;;;;;;4129669;28;20046;-35
2022/01/24 09:58:25;;;;;;;24.67;8.20;;;5.50;76.60;;;;;;4132050;28;20026;-35
2022/01/24 10:00:26;;;;;;;18.10;7.82;;;5.50;76.70;;;;;;4128304;28;20026;-33
2022/01/24 10:02:27;;;;;;;21.77;9.00;;;5.50;76.60;;;;;;4129388;28;20108;-35
2022/01/24 10:04:28;;;;;;;17.00;8.63;;;5.50;76.60;;;;;;4126522;28;20052;-33
2022/01/24 10:06:30;;;;;;;24.25;9.38;;;5.50;76.40;;;;;;4125379;28;20037;-35
2022/01/24 10:08:31;;;;;;;22.83;9.18;;;5.50;76.40;;;;;;4129197;28;20030;-33
2022/01/24 10:10:40;;;;;;;24.77;9.68;;;5.50;76.30;;;;;;4127382;28;20465;-34
2022/01/24 10:17:13;;;;;;;22.52;9.88;;;5.50;76.40;;;;;;4127803;28;20035;-33
2022/01/24 10:19:15;;;;;;;20.95;10.55;;;5.50;76.30;;;;;;4128902;28;20026;-33
2022/01/24 10:21:18;;;;;;;19.10;9.88;;;5.50;76.40;;;;;;4129639;28;20018;-35
2022/01/24 10:23:26;;;;;;;22.73;10.00;;;5.50;76.20;;;;;;4134801;28;20019;-33
2022/01/24 10:25:27;;;;;;;16.48;9.23;;;5.50;76.40;;;;;;4127918;28;20101;-33
2022/01/24 10:27:28;;;;;;;19.83;9.55;;;5.50;76.30;;;;;;4125871;28;20418;-33
2022/01/24 10:29:29;;;;;;;28.23;9.82;;;5.50;76.30;;;;;;4128846;28;20060;-33
2022/01/24 10:31:29;;;;;;;20.60;9.57;;;5.50;76.30;;;;;;4129004;28;20088;-33
2022/01/24 10:33:30;;;;;;;20.55;9.63;;;5.50;76.30;;;;;;4130815;28;20026;-33
2022/01/24 10:35:42;;;;;;;19.33;9.25;;;5.50;76.20;;;;;;4126942;28;20482;-36
2022/01/24 10:37:43;;;;;;;15.75;8.40;;;5.50;76.00;;;;;;4127158;28;20038;-33
2022/01/24 10:39:55;;;;;;;17.42;8.13;;;5.50;76.20;;;;;;4130504;28;20108;-34
2022/01/24 10:44:31;;;;;;;21.75;8.80;;;5.50;76.00;;;;;;4138804;28;20066;-33
2022/01/24 10:46:32;;;;;;;14.52;7.03;;;5.50;75.70;;;;;;4126709;28;20025;-34
2022/01/24 10:48:39;;;;;;;21.92;9.00;;;5.50;75.90;;;;;;4128224;28;20136;-34
2022/01/24 10:50:40;;;;;;;17.42;7.55;;;5.50;76.00;;;;;;4126416;28;20097;-34
2022/01/24 10:52:40;;;;;;;22.48;8.05;;;5.50;75.90;;;;;;4127853;28;20057;-34
2022/01/24 10:54:41;;;;;;;14.38;8.27;;;5.50;76.00;;;;;;4126517;28;23120;-33
2022/01/24 10:56:43;;;;;;;19.23;8.77;;;5.60;76.10;;;;;;4126189;28;20586;-34
2022/01/24 10:58:43;;;;;;;24.33;9.85;;;5.60;76.10;;;;;;4128640;28;20062;-33
2022/01/24 11:00:45;;;;;;;22.02;9.35;;;5.60;75.80;;;;;;4127531;28;20034;-34
2022/01/24 11:02:48;;;;;;;21.42;9.48;;;5.60;75.70;;;;;;4128226;28;20038;-33
2022/01/24 11:04:48;;;;;;;18.45;9.05;;;5.60;75.70;;;;;;4141867;28;20334;-34
2022/01/24 11:06:51;;;;;;;23.80;10.15;;;5.60;75.70;;;;;;4126302;28;20030;-34
2022/01/24 11:09:18;;;;;;;19.73;9.32;;;5.60;75.70;;;;;;4142372;28;20537;-34
2022/01/24 11:11:19;;;;;;;25.35;9.50;;;5.60;75.70;;;;;;4126648;28;20546;-33
2022/01/24 11:13:24;;;;;;;21.88;10.13;;;5.60;75.60;;;;;;4127791;28;20046;-34
2022/01/24 11:15:25;;;;;;;21.45;9.77;;;5.60;75.60;;;;;;4128986;28;20386;-34
2022/01/24 11:17:30;;;;;;;17.63;9.65;;;5.60;75.60;;;;;;4129145;28;20059;-35
2022/01/24 11:19:40;;;;;;;17.15;9.60;;;5.60;75.70;;;;;;4139439;28;20112;-34
2022/01/24 11:21:43;;;;;;;18.83;9.40;;;5.60;75.70;;;;;;4126319;28;20029;-34
2022/01/24 11:23:44;;;;;;;19.45;9.38;;;5.60;75.60;;;;;;4125201;28;20065;-33
2022/01/24 11:25:47;;;;;;;19.55;9.65;;;5.60;75.50;;;;;;4140660;28;20030;-33
2022/01/24 11:27:47;;;;;;;18.95;9.52;;;5.60;75.50;;;;;;4128120;28;20034;-34
2022/01/24 11:29:52;;;;;;;27.25;12.35;;;5.70;75.60;;;;;;4128870;28;20069;-34
2022/01/24 11:32:08;;;;;;;23.75;12.55;;;5.70;75.70;;;;;;4125966;28;20030;-34
2022/01/24 11:34:16;;;;;;;24.23;11.27;;;5.70;75.80;;;;;;4140901;28;20049;-34
2022/01/24 11:36:16;;;;;;;27.88;12.98;;;5.80;75.70;;;;;;4126087;28;20038;-33
2022/01/24 11:38:31;;;;;;;32.25;12.60;;;5.80;75.50;;;;;;4128315;28;20037;-35
2022/01/24 11:40:48;;;;;;;24.65;12.27;;;5.80;75.50;;;;;;4126778;28;20026;-34
2022/01/24 11:42:49;;;;;;;23.75;12.63;;;5.80;75.30;;;;;;4126384;28;20114;-34
2022/01/24 11:44:50;;;;;;;24.23;12.55;;;5.80;75.10;;;;;;4126078;28;20053;-33
2022/01/24 11:46:55;;;;;;;24.83;11.35;;;5.70;75.10;;;;;;4140210;28;20022;-34
2022/01/24 11:49:10;;;;;;;25.30;12.07;;;5.70;75.10;;;;;;4128581;28;20020;-34
2022/01/24 11:51:12;;;;;;;28.20;12.75;;;5.70;75.30;;;;;;4125925;28;20027;-33
2022/01/24 11:53:42;;;;;;;23.20;12.20;;;5.70;75.30;;;;;;4129907;28;20548;-33
2022/01/24 11:55:42;;;;;;;30.88;13.73;;;5.70;75.50;;;;;;4137604;28;20037;-33
2022/01/24 11:57:49;;;;;;;32.70;13.93;;;5.70;75.60;;;;;;4122825;28;20034;-33
2022/01/24 12:00:13;;;;;;;27.92;13.63;;;5.70;75.70;;;;;;4128524;28;20382;-34
2022/01/24 12:02:18;;;;;;;27.38;13.27;;;5.60;75.60;;;;;;4126197;28;20061;-34
2022/01/24 12:04:51;;;;;;;24.75;12.57;;;5.70;75.70;;;;;;4140200;28;20537;-34
2022/01/24 12:07:26;;;;;;;23.23;13.30;;;5.70;75.80;;;;;;4123562;28;20678;-33
2022/01/24 12:09:27;;;;;;;25.63;14.00;;;5.70;75.70;;;;;;4127204;28;20096;-33
2022/01/24 12:11:32;;;;;;;29.52;14.32;;;5.70;75.70;;;;;;4126923;28;20026;-33
2022/01/24 12:13:39;;;;;;;29.42;14.02;;;5.60;75.50;;;;;;4124766;28;20544;-33
2022/01/24 12:16:10;;;;;;;29.17;14.30;;;5.60;75.50;;;;;;4145631;28;20021;-33
2022/01/24 12:18:12;;;;;;;26.60;12.90;;;5.60;75.70;;;;;;4135289;28;20410;-34
2022/01/24 12:20:31;;;;;;;28.63;14.00;;;5.60;75.70;;;;;;4125739;28;20023;-34
2022/01/24 12:22:38;;;;;;;29.98;15.45;;;5.60;75.80;;;;;;4126926;28;20108;-34